メインページ
METAR-TAF:

METAR-TAF

空港 :

チャトラパティ・シヴァージー国際空港

ムンバイ, インド

緯度: 19-07N, 経度: 072-51E, 海抜: 8m

現時点の気象観測

当レポートは42分前の01:30(UTC)に作成
東/北東の風 12kt
気温 24°C
湿度 38%
気圧 1014 hPa
視程: 2500m

METAR: VABB 150130Z 07012KT 2500 FU NSC 24/09 Q1014 NOSIG

時間: 07:42 (02:12 UTC)

予報

当レポートは3時間12分前の23:00(UTC)に作成
予報は15日の 00時(UTC)から 16日の 06時(UTC)まで有効
東/南東の風 6kt
視程: 3000m
高度10000ftの雲はほとんどない
煙霧, 煙
15日の 07時(UTC)から 15日の 09時(UTC)まで徐々に
西の風 8kt
視程: 5000m
15日の 13時(UTC)から 15日の 15時(UTC)まで徐々に
視程: 3000m
煙霧, 煙
15日の 19時(UTC)から 15日の 21時(UTC)まで徐々に
東/北東の風 4kt
16日の 04時(UTC)から 16日の 06時(UTC)まで徐々に
南東の風 6kt
視程: 5000m

TAF: VABB 142300Z 1500/1606 11006KT 3000 HZ FU FEW100 BECMG 1507/1509 27008KT 5000 FU BECMG 1513/1515 3000 HZ FU BECMG 1519/1521 07004KT BECMG 1604/1606 13006KT 5000 FU

4,000以上の空港の気象観測と天気予報(METAR報とTAF報)

利用可能な観測所は地図上に黄色い丸と赤い丸で示す。

丸の上にカーソルを重ねると観測所名を参照できる。

次にクリックすると気象観測と天気予報を参照できる。

マップの切り替え:黒色「×」印の緑ボタンをクリックして拡大、「-」印の緑ボタンをクリックして縮小、緑色の三角印をクリックして隣りの地図に切り替え


METAR-TAF: